Time;durP1;ratioP1;P1;durP2;ratioP2;P2;SDS_P1;SDS_P2;PMS_P1;PMS_P2;Temp;Humidity;BMP_temperature;BMP_pressure;BME280_temperature;BME280_humidity;BME280_pressure;Samples;Min_cycle;Max_cycle;Signal;HPM_P1;HPM_P2
2024/03/17 00:00:47;;;;;;;9.27;7.90;;;;;;;8.22;100.00;153471.44;5058966;28;20513;-90
2024/03/17 00:03:13;;;;;;;8.13;6.40;;;;;;;8.19;100.00;153463.66;5058718;28;20279;-89
2024/03/17 00:05:41;;;;;;;11.23;7.60;;;;;;;8.24;100.00;153475.28;5048572;28;20453;-89
2024/03/17 00:08:08;;;;;;;9.70;7.50;;;;;;;8.13;100.00;153446.88;5060091;28;20233;-90
2024/03/17 00:10:35;;;;;;;9.50;6.83;;;;;;;8.06;100.00;153430.06;5065517;28;20454;-89
2024/03/17 00:13:00;;;;;;;12.33;8.63;;;;;;;8.04;100.00;153423.63;5041537;28;20541;-90
2024/03/17 00:15:28;;;;;;;10.57;7.50;;;;;;;8.03;100.00;153422.31;5046126;28;20536;-90
2024/03/17 00:17:53;;;;;;;11.50;8.80;;;;;;;7.98;100.00;153410.69;5026584;28;20221;-89
2024/03/17 00:20:20;;;;;;;9.50;7.70;;;;;;;8.06;100.00;153428.75;5044001;28;20808;-90
2024/03/17 00:22:49;;;;;;;13.70;10.30;;;;;;;8.12;100.00;153444.28;5060232;28;20214;-89
2024/03/17 00:25:16;;;;;;;11.70;8.37;;;;;;;8.15;100.00;153453.34;5064803;28;20482;-89
2024/03/17 00:27:44;;;;;;;13.67;9.83;;;;;;;8.11;100.00;153443.00;5040758;28;21038;-89
2024/03/17 00:30:13;;;;;;;11.60;9.30;;;;;;;8.05;100.00;153426.22;5035746;28;20728;-90
2024/03/17 00:32:39;;;;;;;13.27;9.93;;;;;;;8.06;100.00;153428.75;5022791;28;20496;-89
2024/03/17 00:35:07;;;;;;;14.20;10.77;;;;;;;8.11;100.00;153443.00;5044609;28;20445;-89
2024/03/17 00:37:33;;;;;;;12.67;9.80;;;;;;;8.11;100.00;153443.00;5042242;28;20621;-90
2024/03/17 00:40:01;;;;;;;12.30;10.17;;;;;;;8.07;100.00;153432.66;5043864;28;20430;-89
2024/03/17 00:42:26;;;;;;;15.03;10.20;;;;;;;8.11;100.00;153443.00;5076045;28;20205;-89
2024/03/17 00:44:53;;;;;;;13.07;10.40;;;;;;;8.11;100.00;153443.00;5052269;28;20800;-90
2024/03/17 00:47:18;;;;;;;10.87;9.40;;;;;;;8.14;100.00;153450.75;5037255;28;20256;-90
2024/03/17 00:49:45;;;;;;;12.23;10.37;;;;;;;8.16;100.00;153454.59;5047800;28;20451;-90
2024/03/17 00:52:11;;;;;;;14.80;10.83;;;;;;;8.16;100.00;153455.91;5031556;28;20201;-90
2024/03/17 00:54:37;;;;;;;13.20;10.53;;;;;;;8.16;100.00;153455.91;5068271;28;20970;-89
2024/03/17 00:57:04;;;;;;;13.00;10.63;;;;;;;8.13;100.00;153446.88;5051432;28;20257;-89
2024/03/17 00:59:31;;;;;;;14.67;10.27;;;;;;;8.08;100.00;153435.22;5061652;28;20449;-89
2024/03/17 01:01:56;;;;;;;13.27;10.03;;;;;;;8.07;100.00;153431.38;5060298;28;20487;-89
2024/03/17 01:04:23;;;;;;;11.93;9.60;;;;;;;8.04;100.00;153424.91;5042962;28;20462;-90
2024/03/17 01:06:48;;;;;;;12.90;10.37;;;;;;;8.03;100.00;153422.31;5061715;28;20221;-89
2024/03/17 01:09:15;;;;;;;12.13;9.97;;;;;;;8.02;100.00;153419.75;5065757;28;20866;-89
2024/03/17 01:11:41;;;;;;;12.57;10.40;;;;;;;8.02;100.00;153418.44;5038982;28;20206;-89
2024/03/17 01:14:09;;;;;;;16.70;11.70;;;;;;;8.02;100.00;153418.44;5061033;28;20962;-89
2024/03/17 01:16:34;;;;;;;18.60;13.57;;;;;;;8.05;100.00;153426.22;5047906;28;20213;-89
2024/03/17 01:19:01;;;;;;;19.03;15.30;;;;;;;8.07;100.00;153431.38;5044259;28;20494;-89
2024/03/17 01:21:26;;;;;;;16.07;12.30;;;;;;;8.09;100.00;153437.81;5062259;28;20233;-89
2024/03/17 01:23:53;;;;;;;15.87;13.30;;;;;;;8.12;100.00;153445.59;5043654;28;20552;-89
2024/03/17 01:26:18;;;;;;;20.50;14.63;;;;;;;8.14;100.00;153450.75;5048525;28;20293;-89
2024/03/17 01:28:45;;;;;;;21.30;15.67;;;;;;;8.18;100.00;153461.06;5041807;28;20806;-89
2024/03/17 01:31:12;;;;;;;15.60;13.33;;;;;;;8.23;100.00;153474.03;5053686;28;20313;-89
2024/03/17 01:33:38;;;;;;;19.20;15.30;;;;;;;8.26;100.00;153480.50;5066928;28;20942;-89
2024/03/17 01:36:05;;;;;;;17.87;14.63;;;;;;;8.32;100.00;153497.31;5074314;28;20450;-88
2024/03/17 01:38:32;;;;;;;23.03;17.17;;;;;;;8.35;100.00;153503.78;5040374;28;20470;-89
2024/03/17 01:40:58;;;;;;;18.53;15.93;;;;;;;8.38;100.00;153512.84;5053792;28;20793;-88
2024/03/17 01:43:24;;;;;;;20.43;15.90;;;;;;;8.41;100.00;153520.59;5058107;28;20448;-88
2024/03/17 01:45:50;;;;;;;20.10;15.03;;;;;;;8.43;100.00;153524.47;5050700;28;20265;-89
2024/03/17 01:48:19;;;;;;;20.50;15.77;;;;;;;8.44;100.00;153527.06;5037285;28;20534;-90
2024/03/17 01:50:45;;;;;;;17.20;14.13;;;;;;;8.46;100.00;153533.53;5058483;28;20294;-89
2024/03/17 01:53:14;;;;;;;18.63;13.97;;;;;;;8.46;100.00;153532.22;5039038;28;20794;-89
2024/03/17 01:55:42;;;;;;;15.80;13.13;;;;;;;8.45;100.00;153530.91;5060966;28;20438;-88
2024/03/17 01:58:10;;;;;;;16.27;13.50;;;;;;;8.44;100.00;153528.34;5020805;28;20475;-89
2024/03/17 02:00:36;;;;;;;16.03;13.03;;;;;;;8.48;100.00;153537.38;5032453;28;20483;-89
2024/03/17 02:03:03;;;;;;;16.33;13.27;;;;;;;8.48;100.00;153537.38;5044764;28;20481;-89
2024/03/17 02:05:30;;;;;;;13.07;10.57;;;;;;;8.49;100.00;153541.28;5046141;28;20450;-89
2024/03/17 02:07:57;;;;;;;12.53;10.17;;;;;;;8.51;100.00;153546.44;5042561;28;20434;-89
2024/03/17 02:10:23;;;;;;;16.53;11.17;;;;;;;8.50;100.00;153542.53;5062093;28;20492;-89
2024/03/17 02:12:49;;;;;;;13.60;10.90;;;;;;;8.46;100.00;153533.53;5057263;28;20434;-88
2024/03/17 02:15:15;;;;;;;13.07;11.27;;;;;;;8.47;100.00;153536.06;5045926;28;20208;-89
2024/03/17 02:17:41;;;;;;;12.80;10.20;;;;;;;8.50;100.00;153543.84;5057391;28;20851;-89
2024/03/17 02:20:07;;;;;;;13.47;10.63;;;;;;;8.51;100.00;153545.13;5066494;28;20200;-89
2024/03/17 02:22:35;;;;;;;13.70;11.23;;;;;;;8.53;100.00;153551.59;5055733;28;20509;-89
2024/03/17 02:25:02;;;;;;;12.97;10.20;;;;;;;8.53;100.00;153550.28;5043603;28;20497;-89
2024/03/17 02:27:28;;;;;;;10.90;9.17;;;;;;;8.52;100.00;153547.75;5042570;28;21027;-89
2024/03/17 02:29:54;;;;;;;10.90;9.17;;;;;;;8.48;100.00;153538.69;5055041;28;20458;-88
2024/03/17 02:32:22;;;;;;;11.57;9.07;;;;;;;8.51;100.00;153545.13;5045851;28;20446;-89
2024/03/17 02:34:48;;;;;;;11.53;8.57;;;;;;;8.52;100.00;153547.75;5051738;28;20300;-89
2024/03/17 02:37:14;;;;;;;10.20;9.10;;;;;;;8.52;100.00;153549.00;5041517;28;20513;-89
2024/03/17 02:39:41;;;;;;;9.60;7.93;;;;;;;8.58;100.00;153563.22;5057552;28;20260;-89
2024/03/17 02:42:09;;;;;;;11.90;9.63;;;;;;;8.52;100.00;153549.00;5059833;28;20426;-89
2024/03/17 02:44:36;;;;;;;14.70;10.20;;;;;;;8.54;100.00;153554.19;5021935;28;21041;-89
2024/03/17 02:47:05;;;;;;;12.30;10.10;;;;;;;8.55;100.00;153556.75;5055916;28;20462;-89
2024/03/17 02:49:36;;;;;;;13.10;10.63;;;;;;;8.56;100.00;153558.06;5038182;28;20837;-89
2024/03/17 02:52:04;;;;;;;13.77;10.87;;;;;;;8.55;100.00;153556.75;5056867;28;20512;-89
2024/03/17 02:54:30;;;;;;;12.23;9.97;;;;;;;8.56;100.00;153558.06;5057080;28;20540;-89
2024/03/17 02:56:59;;;;;;;13.87;12.17;;;;;;;8.52;100.00;153549.00;5039360;28;20446;-89
2024/03/17 02:59:26;;;;;;;13.30;11.33;;;;;;;8.50;100.00;153543.84;5060180;28;20831;-89
2024/03/17 03:01:53;;;;;;;16.13;12.57;;;;;;;8.44;100.00;153528.34;5056815;28;20451;-89
2024/03/17 03:04:20;;;;;;;16.13;12.47;;;;;;;8.47;100.00;153536.06;5042849;28;20576;-88
2024/03/17 03:06:46;;;;;;;16.50;12.90;;;;;;;8.44;100.00;153528.34;5064756;28;20821;-89
2024/03/17 03:09:14;;;;;;;16.80;13.00;;;;;;;8.39;100.00;153515.38;5042169;28;20492;-89
2024/03/17 03:11:41;;;;;;;13.40;10.93;;;;;;;8.33;100.00;153498.63;5020306;28;21214;-89
2024/03/17 03:14:09;;;;;;;12.60;10.20;;;;;;;8.28;100.00;153487.00;5057271;28;20493;-89
2024/03/17 03:16:35;;;;;;;15.83;12.80;;;;;;;8.25;100.00;153479.19;5053144;28;20999;-89
2024/03/17 03:19:02;;;;;;;17.60;13.90;;;;;;;8.24;100.00;153475.28;5034505;28;20469;-88
2024/03/17 03:21:28;;;;;;;18.50;13.10;;;;;;;8.20;100.00;153464.97;5044390;28;20794;-89
2024/03/17 03:23:55;;;;;;;18.03;14.67;;;;;;;8.14;100.00;153450.75;5059639;28;20486;-89
2024/03/17 03:26:23;;;;;;;17.97;13.20;;;;;;;8.09;100.00;153436.53;5041537;28;20845;-89
2024/03/17 03:28:51;;;;;;;16.53;14.40;;;;;;;8.06;100.00;153428.75;5044484;28;20853;-89
2024/03/17 03:31:18;;;;;;;19.70;14.83;;;;;;;8.02;100.00;153419.75;5057363;28;20460;-89
2024/03/17 03:33:45;;;;;;;16.37;13.43;;;;;;;8.05;100.00;153426.22;5060797;28;20446;-88
2024/03/17 03:36:13;;;;;;;18.03;14.70;;;;;;;8.06;100.00;153430.06;5042013;28;20429;-89
2024/03/17 03:38:40;;;;;;;22.90;15.57;;;;;;;8.02;100.00;153419.75;5035714;28;20510;-89
2024/03/17 03:41:08;;;;;;;19.60;13.90;;;;;;;7.97;100.00;153406.78;5045750;28;20466;-89
2024/03/17 03:43:34;;;;;;;16.93;14.10;;;;;;;7.92;100.00;153393.88;5042534;28;20435;-88
2024/03/17 03:46:01;;;;;;;20.07;15.00;;;;;;;7.86;100.00;153378.41;5050503;28;20493;-89
2024/03/17 03:48:29;;;;;;;21.13;15.70;;;;;;;7.83;100.00;153370.66;5039598;28;20470;-89
2024/03/17 03:50:56;;;;;;;20.63;15.20;;;;;;;7.86;100.00;153378.41;5039288;28;20434;-89
2024/03/17 03:53:23;;;;;;;19.00;15.33;;;;;;;7.90;100.00;153390.03;5042104;28;20902;-89
2024/03/17 03:55:49;;;;;;;19.00;15.10;;;;;;;7.96;100.00;153404.22;5059450;28;20921;-89
2024/03/17 03:58:16;;;;;;;19.37;14.43;;;;;;;7.95;100.00;153402.94;5026986;28;20465;-89
2024/03/17 04:00:43;;;;;;;19.90;15.63;;;;;;;7.96;100.00;153404.22;5054343;28;20787;-89
2024/03/17 04:03:09;;;;;;;15.20;13.40;;;;;;;7.80;100.00;153364.19;5021434;28;20465;-89
2024/03/17 04:05:37;;;;;;;19.53;15.43;;;;;;;7.66;100.00;153326.72;5057330;28;20458;-89
2024/03/17 04:08:05;;;;;;;17.97;14.57;;;;;;;7.62;100.00;153317.69;5061210;28;20957;-89
2024/03/17 04:10:32;;;;;;;18.27;14.70;;;;;;;7.66;100.00;153326.72;5049019;28;20458;-89
2024/03/17 04:12:59;;;;;;;21.20;16.27;;;;;;;7.65;100.00;153325.41;5058537;28;20500;-89
2024/03/17 04:15:25;;;;;;;19.63;16.50;;;;;;;7.70;100.00;153337.06;5029026;28;20458;-89
2024/03/17 04:17:52;;;;;;;21.30;16.77;;;;;;;7.65;100.00;153324.16;5045177;28;20893;-89
2024/03/17 04:20:19;;;;;;;19.40;15.37;;;;;;;7.63;100.00;153320.25;5043641;28;20818;-89
2024/03/17 04:22:48;;;;;;;21.20;17.50;;;;;;;7.60;100.00;153311.25;5045470;28;21013;-89
2024/03/17 04:25:15;;;;;;;22.10;17.93;;;;;;;7.60;100.00;153311.25;5062821;28;20489;-89
2024/03/17 04:27:41;;;;;;;21.23;17.03;;;;;;;7.58;100.00;153306.03;5043360;28;20532;-89
2024/03/17 04:30:08;;;;;;;21.30;16.30;;;;;;;7.58;100.00;153306.03;5058787;28;20930;-89
2024/03/17 04:32:35;;;;;;;24.27;16.97;;;;;;;7.64;100.00;153321.56;5057621;28;20507;-89
2024/03/17 04:35:02;;;;;;;20.67;16.40;;;;;;;7.65;100.00;153325.41;5044978;28;20522;-89
2024/03/17 04:37:28;;;;;;;20.93;17.10;;;;;;;7.64;100.00;153322.84;5064534;28;21105;-89
2024/03/17 04:39:57;;;;;;;21.60;15.60;;;;;;;7.68;100.00;153331.84;5023401;28;20827;-89
2024/03/17 04:42:24;;;;;;;19.07;16.07;;;;;;;7.66;100.00;153326.72;5035702;28;20454;-89
2024/03/17 04:44:51;;;;;;;22.97;17.70;;;;;;;7.72;100.00;153342.22;5065446;28;20498;-89
2024/03/17 04:47:17;;;;;;;19.37;15.77;;;;;;;7.76;100.00;153352.53;5058988;28;20869;-89
2024/03/17 04:49:45;;;;;;;20.93;16.17;;;;;;;7.74;100.00;153347.38;5033594;28;20443;-89
2024/03/17 04:52:12;;;;;;;18.47;15.20;;;;;;;7.62;100.00;153317.69;5037726;28;20458;-89
2024/03/17 04:54:39;;;;;;;16.00;13.87;;;;;;;7.58;100.00;153306.03;5058084;28;20454;-89
2024/03/17 04:57:07;;;;;;;16.70;12.90;;;;;;;7.56;100.00;153300.88;5060317;28;20863;-89
2024/03/17 04:59:35;;;;;;;15.20;12.60;;;;;;;7.54;100.00;153297.03;5039343;28;20871;-89
2024/03/17 05:02:01;;;;;;;16.27;12.80;;;;;;;7.52;100.00;153290.56;5044707;28;20508;-89
2024/03/17 05:04:28;;;;;;;14.40;11.87;;;;;;;7.45;100.00;153272.47;5043303;28;20465;-89
2024/03/17 05:06:55;;;;;;;15.10;13.37;;;;;;;7.42;100.00;153266.00;5060923;28;20459;-89
2024/03/17 05:09:21;;;;;;;14.17;11.97;;;;;;;7.37;100.00;153253.09;5064705;28;20816;-89
2024/03/17 05:11:48;;;;;;;13.77;12.00;;;;;;;7.38;100.00;153255.69;5064068;28;20462;-89
2024/03/17 05:14:16;;;;;;;18.17;13.93;;;;;;;7.34;100.00;153245.34;5048106;28;20447;-89
2024/03/17 05:16:42;;;;;;;17.13;13.37;;;;;;;7.31;100.00;153238.88;5036247;28;20435;-88
2024/03/17 05:19:09;;;;;;;16.63;13.17;;;;;;;7.26;100.00;153225.97;5048035;28;20489;-89
2024/03/17 05:21:36;;;;;;;16.00;12.50;;;;;;;7.21;100.00;153213.06;5027870;28;20497;-89
2024/03/17 05:24:03;;;;;;;21.30;13.73;;;;;;;7.15;100.00;153196.25;5043302;28;20558;-89
2024/03/17 05:26:30;;;;;;;18.40;15.00;;;;;;;7.11;100.00;153185.94;5044493;28;20464;-88
2024/03/17 05:28:56;;;;;;;17.03;13.33;;;;;;;7.09;100.00;153182.09;5063348;28;20525;-89
2024/03/17 05:31:25;;;;;;;16.47;13.90;;;;;;;7.05;100.00;153171.75;5041219;28;20450;-89
2024/03/17 05:33:52;;;;;;;18.10;12.80;;;;;;;7.05;100.00;153171.75;5043343;28;20458;-89
2024/03/17 05:36:19;;;;;;;18.53;15.63;;;;;;;7.10;100.00;153183.34;5042466;28;20537;-89
2024/03/17 05:38:46;;;;;;;20.23;14.57;;;;;;;7.11;100.00;153187.25;5030348;28;20496;-89
2024/03/17 05:41:13;;;;;;;20.07;14.87;;;;;;;7.16;100.00;153198.84;5040146;28;20431;-89
2024/03/17 05:43:39;;;;;;;18.67;14.53;;;;;;;7.15;100.00;153197.56;5058735;28;20515;-89
2024/03/17 05:46:07;;;;;;;20.67;14.40;;;;;;;7.15;100.00;153196.25;5048453;28;20442;-88
2024/03/17 05:48:37;;;;;;;20.47;15.77;;;;;;;7.12;100.00;153188.56;5061182;28;20564;-88
2024/03/17 05:51:04;;;;;;;19.97;15.47;;;;;;;7.22;100.00;153215.66;5045258;28;20446;-88
2024/03/17 05:53:32;;;;;;;19.83;14.50;;;;;;;7.20;100.00;153210.47;5052174;28;20984;-88
2024/03/17 05:55:59;;;;;;;22.30;16.00;;;;;;;7.15;100.00;153197.56;5042135;28;20478;-89
2024/03/17 05:58:26;;;;;;;17.00;14.47;;;;;;;7.24;100.00;153220.81;5022838;28;20479;-89
2024/03/17 06:00:52;;;;;;;20.30;16.40;;;;;;;7.34;100.00;153246.63;5065741;28;20469;-89
2024/03/17 06:03:19;;;;;;;20.80;15.43;;;;;;;7.43;100.00;153267.31;5059492;28;20466;-88
2024/03/17 06:05:47;;;;;;;22.13;16.20;;;;;;;7.43;100.00;153267.31;5054980;28;20454;-88
2024/03/17 06:08:13;;;;;;;18.10;14.80;;;;;;;7.43;100.00;153267.31;5060847;28;20446;-87
2024/03/17 06:10:44;;;;;;;19.00;14.60;;;;;;;7.42;100.00;153266.00;5045057;28;20552;-87
2024/03/17 06:13:11;;;;;;;16.20;12.83;;;;;;;7.48;100.00;153280.22;5063625;28;20450;-87
2024/03/17 06:15:39;;;;;;;19.97;15.03;;;;;;;7.43;100.00;153268.59;5058484;28;20803;-87
2024/03/17 06:18:05;;;;;;;18.33;14.60;;;;;;;7.43;100.00;153268.59;5042332;28;20455;-88
2024/03/17 06:20:35;;;;;;;20.50;16.07;;;;;;;7.49;100.00;153282.81;5028453;28;20470;-89
2024/03/17 06:23:03;;;;;;;18.37;15.00;;;;;;;7.57;100.00;153303.47;5041764;28;20451;-89
2024/03/17 06:25:32;;;;;;;19.30;17.20;;;;;;;7.62;100.00;153316.41;5056158;28;20874;-90
2024/03/17 06:27:58;;;;;;;16.93;14.17;;;;;;;7.66;100.00;153326.72;5060910;28;20488;-90
2024/03/17 06:30:24;;;;;;;19.90;15.97;;;;;;;7.77;100.00;153356.44;5040376;28;20455;-90
2024/03/17 06:32:52;;;;;;;18.77;14.60;;;;;;;7.97;100.00;153408.09;5030607;28;20202;-90
2024/03/17 06:35:18;;;;;;;24.13;21.43;;;;;;;8.22;100.00;153471.44;5041361;28;21080;-90
2024/03/17 06:37:45;;;;;;;22.53;18.33;;;;;;;8.46;100.00;153532.22;5058797;28;20462;-90
2024/03/17 06:40:14;;;;;;;22.00;19.17;;;;;;;8.68;100.00;153587.81;5059648;28;20516;-90
2024/03/17 06:42:41;;;;;;;26.67;18.70;;;;;;;8.83;100.00;153627.88;5062622;28;20497;-89
2024/03/17 06:45:11;;;;;;;19.80;17.70;;;;;;;9.06;100.00;153686.06;5045921;28;20475;-90
2024/03/17 06:47:37;;;;;;;21.27;18.67;;;;;;;9.18;100.00;153717.13;5030013;28;20446;-90
2024/03/17 06:50:05;;;;;;;20.40;18.03;;;;;;;9.23;100.00;153730.03;5063714;28;20504;-90
2024/03/17 06:52:31;;;;;;;19.00;17.03;;;;;;;9.31;100.00;153749.44;5065956;28;20515;-90
2024/03/17 06:55:01;;;;;;;16.13;14.50;;;;;;;9.30;100.00;153748.13;5069935;28;20549;-90
2024/03/17 06:57:29;;;;;;;16.63;14.73;;;;;;;9.27;100.00;153740.38;5048200;28;20454;-88
2024/03/17 06:59:55;;;;;;;18.20;14.90;;;;;;;9.25;100.00;153735.22;5051058;28;20564;-89
2024/03/17 07:02:22;;;;;;;18.20;14.80;;;;;;;9.33;100.00;153754.59;5050679;28;20540;-88
2024/03/17 07:04:48;;;;;;;17.43;15.63;;;;;;;9.49;100.00;153797.31;5069347;28;20531;-89
2024/03/17 07:07:15;;;;;;;16.90;15.17;;;;;;;9.74;100.00;153860.72;5046573;28;20422;-89
2024/03/17 07:09:42;;;;;;;17.90;15.23;;;;;;;10.04;100.00;153937.03;5054306;28;20450;-89
2024/03/17 07:12:08;;;;;;;19.97;15.83;;;;;;;10.17;100.00;153972.03;5058727;28;20445;-89
2024/03/17 07:14:37;;;;;;;18.17;16.30;;;;;;;10.22;100.00;153984.97;5051848;28;20529;-89
2024/03/17 07:17:04;;;;;;;16.10;14.40;;;;;;;10.14;100.00;153963.00;5051285;28;20499;-89
2024/03/17 07:19:32;;;;;;;14.90;13.50;;;;;;;10.30;100.00;154004.38;5051666;28;20481;-89
2024/03/17 07:21:59;;;;;;;16.83;14.87;;;;;;;10.33;100.00;154013.47;5069607;28;20481;-89
2024/03/17 07:24:25;;;;;;;17.07;15.30;;;;;;;10.38;100.00;154025.09;5069144;28;20489;-89
2024/03/17 07:26:52;;;;;;;15.30;13.70;;;;;;;10.40;100.00;154030.31;5070668;28;20483;-89
2024/03/17 07:29:19;;;;;;;13.43;12.10;;;;;;;10.48;100.00;154051.03;5061956;28;20842;-88
2024/03/17 07:31:47;;;;;;;13.67;11.60;;;;;;;10.56;100.00;154070.44;5060986;28;20947;-89
2024/03/17 07:34:14;;;;;;;13.03;11.67;;;;;;;10.68;100.00;154101.50;5066048;28;20450;-89
2024/03/17 07:36:40;;;;;;;12.07;9.80;;;;;;;10.80;100.00;154133.84;5068908;28;20457;-89
2024/03/17 07:39:08;;;;;;;10.63;9.20;;;;;;;10.93;100.00;154167.53;5069509;28;20474;-89
2024/03/17 07:41:34;;;;;;;10.73;9.63;;;;;;;11.17;100.00;154228.44;5054586;28;20453;-89
2024/03/17 07:44:03;;;;;;;11.23;9.33;;;;;;;11.25;100.00;154249.13;5054181;28;20475;-89
2024/03/17 07:46:30;;;;;;;10.97;9.80;;;;;;;11.39;100.00;154285.41;5066159;28;20470;-89
2024/03/17 07:48:58;;;;;;;11.23;9.37;;;;;;;11.55;99.13;154325.59;5049219;28;20458;-89
2024/03/17 07:51:24;;;;;;;13.00;11.40;;;;;;;11.73;97.71;154371.03;5065586;28;20451;-89
2024/03/17 07:53:51;;;;;;;12.20;10.50;;;;;;;11.75;96.11;154377.50;5071793;28;20900;-89
2024/03/17 07:56:19;;;;;;;12.53;11.33;;;;;;;11.75;95.39;154377.50;5050815;28;20557;-89
2024/03/17 07:58:47;;;;;;;12.20;11.03;;;;;;;11.79;96.21;154387.84;5054230;28;20450;-89
2024/03/17 08:01:15;;;;;;;11.13;10.07;;;;;;;11.76;97.07;154380.06;5073174;28;20853;-89
2024/03/17 08:03:43;;;;;;;13.80;12.03;;;;;;;11.68;97.34;154359.28;5050281;28;20819;-89
2024/03/17 08:06:11;;;;;;;13.90;12.60;;;;;;;11.62;95.85;154345.00;5051908;28;21012;-88
2024/03/17 08:08:38;;;;;;;12.53;11.03;;;;;;;11.54;93.76;154323.03;5052908;28;20439;-88
2024/03/17 08:11:05;;;;;;;10.60;9.50;;;;;;;11.42;93.53;154293.19;5066730;28;20456;-88
2024/03/17 08:13:34;;;;;;;12.63;9.93;;;;;;;11.28;91.18;154255.66;5069529;28;21032;-88
2024/03/17 08:16:03;;;;;;;11.63;8.77;;;;;;;11.38;91.64;154281.56;5068630;28;20450;-89
2024/03/17 08:18:30;;;;;;;10.87;9.77;;;;;;;11.30;93.06;154260.81;5031556;28;20457;-89
2024/03/17 08:20:56;;;;;;;9.63;8.73;;;;;;;11.27;92.17;154253.03;5036340;28;20468;-89
2024/03/17 08:23:24;;;;;;;10.30;9.30;;;;;;;11.37;92.79;154278.94;5053848;28;20442;-89
2024/03/17 08:25:54;;;;;;;8.90;8.00;;;;;;;11.38;93.53;154282.84;5070009;28;20473;-89
2024/03/17 08:28:21;;;;;;;8.50;7.70;;;;;;;11.40;93.95;154286.72;5052156;28;20507;-89
2024/03/17 08:30:52;;;;;;;9.47;7.90;;;;;;;11.43;94.15;154295.81;5020416;28;20451;-89
2024/03/17 08:33:19;;;;;;;8.90;8.10;;;;;;;11.38;92.73;154281.56;5060476;28;20452;-90
2024/03/17 08:35:53;;;;;;;8.77;7.77;;;;;;;11.31;92.13;154263.38;5053399;28;20945;-89
2024/03/17 08:38:30;;;;;;;8.60;7.47;;;;;;;11.28;92.31;154255.66;5053298;28;20457;-90
2024/03/17 08:40:58;;;;;;;7.73;6.83;;;;;;;11.28;92.55;154256.91;5062668;28;20462;-90
2024/03/17 08:43:25;;;;;;;6.80;6.10;;;;;;;11.30;92.76;154260.81;5032296;28;21039;-90
2024/03/17 08:45:58;;;;;;;7.40;6.03;;;;;;;11.25;92.78;154247.88;5048670;28;20451;-89
2024/03/17 08:48:30;;;;;;;7.83;6.20;;;;;;;11.25;92.19;154247.88;5043151;28;20474;-90
2024/03/17 08:50:57;;;;;;;8.43;6.73;;;;;;;11.23;92.61;154243.97;5036901;28;20438;-90
2024/03/17 08:53:24;;;;;;;6.70;5.90;;;;;;;11.35;92.94;154273.78;5054972;28;20507;-90
2024/03/17 08:55:52;;;;;;;6.93;5.60;;;;;;;11.45;92.02;154299.69;5072912;28;20487;-90
2024/03/17 08:58:19;;;;;;;6.93;5.57;;;;;;;11.52;91.41;154317.81;5056836;28;20450;-90
2024/03/17 09:00:45;;;;;;;5.70;4.83;;;;;;;11.58;89.74;154333.38;5035683;28;20893;-89
2024/03/17 09:03:12;;;;;;;6.90;5.40;;;;;;;11.63;90.18;154346.31;5061757;28;20446;-90
2024/03/17 09:05:40;;;;;;;5.17;4.40;;;;;;;11.73;90.50;154371.03;5037587;28;20453;-90
2024/03/17 09:08:08;;;;;;;5.10;4.60;;;;;;;11.71;87.23;154367.09;5037932;28;20499;-90
2024/03/17 09:10:40;;;;;;;6.60;4.97;;;;;;;11.67;87.44;154356.72;5066195;28;20538;-90
2024/03/17 09:13:08;;;;;;;5.10;4.60;;;;;;;11.66;86.87;154352.78;5045913;28;21010;-90
2024/03/17 09:15:34;;;;;;;5.50;4.70;;;;;;;11.62;86.80;154343.75;5033371;28;20451;-90
2024/03/17 09:18:02;;;;;;;5.50;4.63;;;;;;;11.71;87.00;154365.81;5034474;28;20427;-90
2024/03/17 09:20:28;;;;;;;4.70;4.13;;;;;;;11.82;85.15;154394.31;5052114;28;20483;-90
2024/03/17 09:22:55;;;;;;;6.50;5.27;;;;;;;11.84;83.72;154400.78;5054429;28;20445;-91
2024/03/17 09:25:23;;;;;;;4.83;3.83;;;;;;;11.91;83.83;154418.97;5071922;28;20481;-91
2024/03/17 09:27:49;;;;;;;5.20;4.20;;;;;;;12.01;80.80;154444.91;5037766;28;20431;-91
2024/03/17 09:30:17;;;;;;;5.63;4.40;;;;;;;12.13;81.47;154475.97;5072366;28;20484;-91
2024/03/17 09:32:44;;;;;;;5.23;4.30;;;;;;;12.14;81.56;154478.59;5045689;28;20449;-90
2024/03/17 09:35:11;;;;;;;4.80;4.20;;;;;;;12.19;80.96;154491.56;5054074;28;20936;-90
2024/03/17 09:37:37;;;;;;;6.00;5.00;;;;;;;12.22;79.65;154498.03;5071948;28;20450;-90
2024/03/17 09:40:06;;;;;;;5.43;4.27;;;;;;;12.31;80.15;154520.09;5067839;28;20474;-91
2024/03/17 09:42:32;;;;;;;4.60;4.20;;;;;;;12.37;79.44;154535.59;5065047;28;20505;-91
2024/03/17 09:44:59;;;;;;;4.70;3.90;;;;;;;12.43;78.08;154551.19;5059326;28;20549;-91
2024/03/17 09:47:27;;;;;;;6.47;5.17;;;;;;;12.54;79.50;154579.72;5050051;28;20457;-90
2024/03/17 09:49:56;;;;;;;6.50;4.63;;;;;;;12.54;74.14;154581.03;5055206;28;20941;-91
2024/03/17 09:52:24;;;;;;;5.90;4.30;;;;;;;12.43;68.13;154551.19;5034520;28;20956;-88
2024/03/17 09:54:59;;;;;;;7.30;4.97;;;;;;;12.48;69.37;154565.44;5062619;28;20548;-82
2024/03/17 09:57:26;;;;;;;6.70;4.97;;;;;;;12.54;72.15;154579.72;5040774;28;20908;-93
2024/03/17 09:59:54;;;;;;;6.53;5.03;;;;;;;12.51;71.41;154573.25;5046239;28;20836;-92
2024/03/17 10:02:24;;;;;;;6.80;5.17;;;;;;;12.54;71.34;154581.03;5028598;28;20546;-92
2024/03/17 10:04:54;;;;;;;6.63;4.80;;;;;;;12.57;70.70;154587.50;5037266;28;20552;-91
2024/03/17 10:07:39;;;;;;;7.70;5.70;;;;;;;12.55;70.02;154582.34;5037542;28;20851;-92
2024/03/17 10:10:13;;;;;;;8.40;7.00;;;;;;;12.55;69.90;154582.34;5053604;28;20500;-91
2024/03/17 10:12:40;;;;;;;8.20;5.07;;;;;;;12.55;69.15;154583.59;5037023;28;20429;-91
2024/03/17 10:15:10;;;;;;;6.17;5.47;;;;;;;12.50;68.53;154569.31;5036487;28;20462;-91
2024/03/17 10:17:37;;;;;;;4.33;3.93;;;;;;;12.45;67.07;154557.66;5036245;28;20788;-91
2024/03/17 10:20:16;;;;;;;4.83;4.30;;;;;;;12.47;68.40;154561.59;5027551;28;20505;-91
2024/03/17 10:23:05;;;;;;;4.27;3.50;;;;;;;12.26;63.09;154507.13;5036193;28;20478;-91
2024/03/17 10:25:33;;;;;;;6.43;4.13;;;;;;;12.30;64.56;154518.78;5028350;28;20466;-93
2024/03/17 10:28:01;;;;;;;4.23;3.50;;;;;;;12.42;67.38;154548.56;5035850;28;20446;-91
2024/03/17 10:30:30;;;;;;;5.93;3.17;;;;;;;12.57;69.09;154587.50;5036164;28;21101;-90
2024/03/17 10:32:58;;;;;;;4.50;3.60;;;;;;;12.66;68.56;154610.81;5033181;28;20529;-89
2024/03/17 10:35:31;;;;;;;4.07;3.30;;;;;;;12.79;75.86;154644.53;5037529;28;20970;-90
2024/03/17 10:37:59;;;;;;;4.47;3.97;;;;;;;12.69;66.29;154618.63;5053014;28;20822;-91
2024/03/17 10:40:27;;;;;;;3.53;3.10;;;;;;;12.67;66.71;154613.44;5036387;28;20477;-91
2024/03/17 10:42:53;;;;;;;4.57;3.83;;;;;;;12.70;67.26;154621.22;5036270;28;20525;-92
2024/03/17 10:45:21;;;;;;;7.80;3.80;;;;;;;12.73;66.38;154629.00;5035900;28;20476;-91
2024/03/17 10:47:49;;;;;;;3.63;3.00;;;;;;;12.84;67.42;154658.81;5036070;28;20440;-91
2024/03/17 10:50:19;;;;;;;4.87;3.80;;;;;;;12.88;67.55;154667.91;5036224;28;20465;-91
2024/03/17 10:52:54;;;;;;;8.90;4.73;;;;;;;12.93;67.21;154680.88;5036425;28;20442;-91
2024/03/17 10:55:23;;;;;;;5.53;4.90;;;;;;;12.90;66.75;154673.09;5036372;28;20456;-91
2024/03/17 10:57:53;;;;;;;10.43;7.33;;;;;;;12.79;66.56;154644.53;5036477;28;20469;-91
2024/03/17 11:00:23;;;;;;;5.47;4.23;;;;;;;12.81;68.62;154649.75;5036302;28;20469;-91
2024/03/17 11:02:51;;;;;;;4.10;3.70;;;;;;;12.91;66.92;154675.69;5035920;28;20951;-92
2024/03/17 11:05:20;;;;;;;3.93;3.30;;;;;;;12.88;67.71;154667.91;5036048;28;20438;-91
2024/03/17 11:07:50;;;;;;;5.27;3.57;;;;;;;12.98;69.24;154693.84;5036031;28;20511;-92
2024/03/17 11:10:19;;;;;;;5.70;4.13;;;;;;;13.07;68.47;154715.97;5036178;28;20446;-91
2024/03/17 11:12:47;;;;;;;3.97;3.03;;;;;;;13.14;70.18;154734.09;5018693;28;20937;-91
2024/03/17 11:15:38;;;;;;;3.90;3.20;;;;;;;13.23;68.81;154758.78;5045175;28;20884;-91